createdAt,value
2019-05-03T00:00:04.287Z,99.90
2019-05-03T00:02:55.840Z,99.90
2019-05-03T00:05:42.022Z,99.90
2019-05-03T00:08:12.692Z,99.90
2019-05-03T00:10:42.671Z,99.90
2019-05-03T00:13:12.972Z,99.90
2019-05-03T00:16:16.992Z,99.90
2019-05-03T00:18:46.907Z,99.90
2019-05-03T00:21:16.752Z,99.90
2019-05-03T00:23:46.524Z,99.90
2019-05-03T00:26:16.744Z,99.90
2019-05-03T00:28:48.572Z,99.90
2019-05-03T00:31:18.146Z,99.90
2019-05-03T00:33:51.677Z,99.90
2019-05-03T00:36:39.147Z,99.90
2019-05-03T00:39:32.586Z,99.90
2019-05-03T00:42:02.747Z,99.90
2019-05-03T00:44:32.633Z,99.90
2019-05-03T00:47:02.427Z,99.90
2019-05-03T00:49:32.353Z,99.90
2019-05-03T00:52:02.566Z,99.90
2019-05-03T00:54:32.779Z,99.90
2019-05-03T00:57:02.834Z,99.90
2019-05-03T00:59:32.748Z,99.90
2019-05-03T01:02:02.887Z,99.90
2019-05-03T01:04:51.965Z,99.90
2019-05-03T01:07:22.387Z,99.90
2019-05-03T01:09:52.132Z,99.90
2019-05-03T01:12:22.059Z,99.90
2019-05-03T01:14:53.416Z,99.90
2019-05-03T01:17:23.205Z,99.90
2019-05-03T01:19:52.876Z,99.90
2019-05-03T01:22:22.794Z,99.90
2019-05-03T01:24:52.557Z,99.90
2019-05-03T01:27:22.429Z,99.90
2019-05-03T01:29:52.148Z,99.90
2019-05-03T01:32:22.364Z,99.90
2019-05-03T01:34:52.449Z,99.90
2019-05-03T01:37:22.709Z,99.90
2019-05-03T01:39:52.787Z,99.90
2019-05-03T01:42:22.736Z,99.90
2019-05-03T01:44:52.870Z,99.90
2019-05-03T01:47:30.210Z,99.90
2019-05-03T01:50:20.231Z,99.90
2019-05-03T01:52:52.413Z,99.90
2019-05-03T01:55:24.092Z,99.90
2019-05-03T01:57:54.020Z,99.90
2019-05-03T02:00:26.758Z,99.90
2019-05-03T02:03:08.207Z,99.90
2019-05-03T02:05:46.782Z,99.90
2019-05-03T02:08:17.095Z,99.90
2019-05-03T02:10:46.900Z,99.90
2019-05-03T02:13:16.705Z,99.90
2019-05-03T02:15:46.418Z,99.90
2019-05-03T02:18:16.800Z,99.90
2019-05-03T02:20:46.869Z,99.90
2019-05-03T02:23:17.127Z,99.90
2019-05-03T02:25:55.966Z,99.90
2019-05-03T02:28:18.121Z,99.90
2019-05-03T02:30:47.924Z,99.90
2019-05-03T02:33:17.732Z,99.90
2019-05-03T02:35:47.573Z,99.90
2019-05-03T02:38:17.364Z,99.90
2019-05-03T02:40:47.796Z,99.90
2019-05-03T02:43:36.297Z,99.90
2019-05-03T02:46:36.520Z,99.90
2019-05-03T02:49:21.959Z,99.90
2019-05-03T02:51:51.770Z,99.90
2019-05-03T02:54:21.970Z,99.90
2019-05-03T02:56:51.802Z,99.90
2019-05-03T02:59:21.749Z,99.90
2019-05-03T03:01:51.735Z,99.90
2019-05-03T03:04:22.556Z,99.90
2019-05-03T03:06:55.642Z,99.90
2019-05-03T03:09:26.046Z,99.90
2019-05-03T03:11:58.676Z,99.90
2019-05-03T03:14:30.444Z,99.90
2019-05-03T03:17:02.741Z,99.90
2019-05-03T03:19:35.401Z,99.90
2019-05-03T03:22:08.155Z,99.90
2019-05-03T03:24:40.996Z,99.90
2019-05-03T03:27:16.451Z,99.90
2019-05-03T03:29:49.694Z,99.90
2019-05-03T03:32:31.168Z,99.90
2019-05-03T03:35:20.898Z,99.90
2019-05-03T03:37:46.872Z,99.90
2019-05-03T03:40:18.674Z,99.90
2019-05-03T03:42:51.161Z,99.90
2019-05-03T03:45:21.001Z,99.90
2019-05-03T03:47:56.314Z,99.90
2019-05-03T03:50:26.377Z,99.90
2019-05-03T03:52:59.007Z,99.90
2019-05-03T03:55:32.130Z,99.90
2019-05-03T03:58:02.321Z,99.90
2019-05-03T04:00:32.242Z,99.90
2019-05-03T04:03:02.154Z,99.90
2019-05-03T04:05:32.269Z,99.90
2019-05-03T04:08:05.397Z,99.90
2019-05-03T04:10:35.279Z,99.90
2019-05-03T04:13:06.578Z,99.90
2019-05-03T04:16:05.534Z,99.90
2019-05-03T04:18:45.612Z,99.90
2019-05-03T04:21:16.213Z,99.90
2019-05-03T04:23:46.416Z,99.90
2019-05-03T04:26:16.519Z,99.90
2019-05-03T04:28:47.802Z,99.90
2019-05-03T04:31:17.497Z,99.90
2019-05-03T04:33:47.790Z,99.90
2019-05-03T04:36:17.664Z,99.90
2019-05-03T04:38:47.499Z,99.90
2019-05-03T04:41:17.382Z,99.90
2019-05-03T04:43:47.735Z,99.90
2019-05-03T04:46:25.471Z,99.90
2019-05-03T04:48:56.203Z,99.90
2019-05-03T04:51:26.196Z,99.90
2019-05-03T04:54:16.153Z,99.90
2019-05-03T04:56:46.448Z,99.90
2019-05-03T04:59:16.429Z,99.90
2019-05-03T05:01:46.363Z,99.90
2019-05-03T05:04:16.320Z,99.90
2019-05-03T05:06:46.044Z,99.90
2019-05-03T05:09:15.899Z,99.90
2019-05-03T05:11:46.054Z,99.90
2019-05-03T05:14:16.262Z,99.90
2019-05-03T05:16:46.779Z,99.90
2019-05-03T05:19:19.812Z,99.90
2019-05-03T05:21:54.950Z,99.90
2019-05-03T05:24:25.540Z,99.90
2019-05-03T05:27:14.849Z,99.90
2019-05-03T05:29:45.066Z,99.90
2019-05-03T05:32:14.859Z,99.90
2019-05-03T05:34:46.076Z,99.90
2019-05-03T05:37:16.356Z,99.90
2019-05-03T05:39:46.036Z,99.90
2019-05-03T05:42:15.841Z,99.90
2019-05-03T05:44:45.560Z,99.90
2019-05-03T05:47:27.160Z,99.90
2019-05-03T05:50:05.004Z,99.90
2019-05-03T05:52:35.301Z,99.90
2019-05-03T05:55:16.392Z,99.90
2019-05-03T05:58:16.826Z,99.90
2019-05-03T06:00:56.997Z,99.90
2019-05-03T06:03:26.769Z,99.90
2019-05-03T06:05:58.504Z,99.90
2019-05-03T06:08:36.966Z,99.90
2019-05-03T06:11:20.986Z,99.90
2019-05-03T06:14:08.608Z,99.90
2019-05-03T06:16:48.874Z,99.90
2019-05-03T06:19:25.279Z,99.90
2019-05-03T06:22:11.812Z,99.90
2019-05-03T06:37:45.917Z,99.90
2019-05-03T06:40:15.131Z,99.90
2019-05-03T06:42:53.953Z,99.90
2019-05-03T06:45:15.206Z,99.90
2019-05-03T06:47:49.459Z,99.90
2019-05-03T06:50:19.535Z,99.90
2019-05-03T06:52:48.294Z,99.90
2019-05-03T06:55:18.147Z,99.90
2019-05-03T06:57:49.719Z,99.90
2019-05-03T07:00:31.264Z,99.90
2019-05-03T07:03:10.400Z,99.90
2019-05-03T07:05:56.952Z,99.90
2019-05-03T07:09:00.581Z,99.90
2019-05-03T07:11:30.630Z,99.90
2019-05-03T07:14:02.061Z,99.90
2019-05-03T07:16:31.986Z,99.90
2019-05-03T07:19:01.938Z,99.90
2019-05-03T07:21:31.702Z,99.90
2019-05-03T07:24:01.463Z,99.90
2019-05-03T07:26:31.220Z,99.90
2019-05-03T07:29:01.073Z,99.90
2019-05-03T07:31:30.962Z,99.90
2019-05-03T07:34:00.799Z,99.90
2019-05-03T07:36:31.162Z,99.90
2019-05-03T07:39:01.205Z,99.90
2019-05-03T07:41:31.225Z,99.90
2019-05-03T07:44:01.432Z,99.90
2019-05-03T07:46:31.790Z,99.90
2019-05-03T07:49:01.613Z,96.20
2019-05-03T07:51:31.321Z,96.20
2019-05-03T07:53:59.927Z,98.30
2019-05-03T07:56:35.607Z,99.10
2019-05-03T07:59:06.518Z,99.80
2019-05-03T08:01:38.990Z,99.00
2019-05-03T08:04:08.915Z,97.90
2019-05-03T08:06:38.591Z,98.60
2019-05-03T08:09:09.461Z,99.90
2019-05-03T08:11:39.544Z,99.90
2019-05-03T08:14:09.335Z,99.90
2019-05-03T08:16:39.154Z,99.90
2019-05-03T08:19:08.914Z,99.90
2019-05-03T08:21:39.201Z,99.90
2019-05-03T08:24:10.528Z,99.90
2019-05-03T08:26:40.834Z,99.90
2019-05-03T08:29:15.851Z,99.90
2019-05-03T08:32:05.098Z,99.90
2019-05-03T08:34:46.004Z,99.90
2019-05-03T08:37:17.463Z,99.90
2019-05-03T08:39:46.014Z,99.90
2019-05-03T08:42:34.882Z,99.80
2019-05-03T08:45:07.717Z,99.90
2019-05-03T08:47:35.434Z,99.90
2019-05-03T08:50:05.584Z,99.90
2019-05-03T08:52:35.428Z,99.90
2019-05-03T08:55:05.423Z,99.50
2019-05-03T08:57:35.491Z,98.30
2019-05-03T09:00:08.144Z,99.00
2019-05-03T09:02:37.945Z,99.80
2019-05-03T09:05:08.585Z,99.90
2019-05-03T09:07:38.398Z,99.90
2019-05-03T09:10:31.636Z,99.90
2019-05-03T09:13:14.521Z,99.90
2019-05-03T09:15:44.686Z,99.90
2019-05-03T09:18:16.803Z,99.20
2019-05-03T09:20:44.815Z,99.30
2019-05-03T09:23:15.361Z,96.50
2019-05-03T09:25:45.845Z,93.90
2019-05-03T09:28:15.502Z,94.50
2019-05-03T09:30:44.826Z,93.50
2019-05-03T09:33:15.165Z,93.80
2019-05-03T09:35:45.714Z,92.40
2019-05-03T09:38:15.129Z,93.40
2019-05-03T09:40:45.357Z,91.90
2019-05-03T09:43:15.092Z,92.50
2019-05-03T09:45:45.776Z,92.80
2019-05-03T09:48:15.723Z,93.70
2019-05-03T09:50:45.496Z,95.10
2019-05-03T09:53:17.601Z,94.30
2019-05-03T09:55:47.579Z,92.70
2019-05-03T09:58:17.405Z,93.20
2019-05-03T10:00:48.872Z,93.20
2019-05-03T10:03:19.117Z,92.80
2019-05-03T10:05:48.837Z,91.60
2019-05-03T10:08:18.691Z,93.20
2019-05-03T10:11:06.621Z,94.00
2019-05-03T10:13:36.459Z,92.90
2019-05-03T10:16:06.625Z,94.10
2019-05-03T10:18:36.901Z,92.20
2019-05-03T10:21:07.064Z,92.40
2019-05-03T10:23:40.309Z,91.60
2019-05-03T10:26:10.351Z,92.70
2019-05-03T10:28:40.321Z,92.40
2019-05-03T10:31:08.923Z,92.80
2019-05-03T10:33:46.498Z,93.60
2019-05-03T10:36:16.513Z,94.30
2019-05-03T10:38:46.929Z,94.40
2019-05-03T10:41:16.597Z,94.90
2019-05-03T10:43:46.438Z,93.60
2019-05-03T10:46:16.414Z,94.60
2019-05-03T10:48:46.215Z,93.90
2019-05-03T10:51:16.069Z,93.30
2019-05-03T10:53:46.825Z,93.60
2019-05-03T10:56:23.337Z,92.90
2019-05-03T10:58:55.101Z,92.30
2019-05-03T11:01:31.838Z,93.10
2019-05-03T11:04:00.523Z,93.00
2019-05-03T11:06:29.221Z,92.30
2019-05-03T11:09:00.947Z,91.70
2019-05-03T11:11:30.848Z,91.80
2019-05-03T11:14:00.678Z,92.50
2019-05-03T11:16:30.573Z,92.40
2019-05-03T11:19:00.686Z,93.70
2019-05-03T11:21:31.189Z,93.20
2019-05-03T11:24:01.147Z,93.20
2019-05-03T11:26:31.309Z,92.90
2019-05-03T11:29:01.087Z,93.80
2019-05-03T11:31:48.696Z,92.70
2019-05-03T11:34:22.547Z,93.10
2019-05-03T11:37:09.940Z,93.50
2019-05-03T11:39:39.840Z,93.30
2019-05-03T11:42:09.738Z,93.40
2019-05-03T11:44:39.950Z,93.10
2019-05-03T11:47:09.979Z,92.80
2019-05-03T11:49:39.700Z,93.80
2019-05-03T11:52:12.660Z,92.80
2019-05-03T11:54:42.394Z,92.80
2019-05-03T11:57:19.190Z,92.10
2019-05-03T11:59:49.235Z,91.70
2019-05-03T12:02:37.979Z,91.20
2019-05-03T12:05:12.238Z,90.90
2019-05-03T12:07:42.020Z,92.00
2019-05-03T12:10:20.713Z,91.80
2019-05-03T12:12:45.262Z,91.50
2019-05-03T12:15:15.429Z,87.80
2019-05-03T12:17:54.515Z,89.70
2019-05-03T12:20:20.049Z,88.00
2019-05-03T12:22:50.364Z,88.30
2019-05-03T12:25:21.217Z,90.30
2019-05-03T12:27:51.057Z,90.10
2019-05-03T12:30:20.679Z,87.50
2019-05-03T12:32:50.391Z,89.20
2019-05-03T12:35:20.525Z,90.30
2019-05-03T12:37:50.299Z,90.30
2019-05-03T12:40:20.262Z,90.40
2019-05-03T12:42:50.213Z,91.00
2019-05-03T12:45:20.399Z,90.40
2019-05-03T12:47:50.469Z,90.90
2019-05-03T12:50:20.410Z,90.30
2019-05-03T12:52:50.871Z,90.60
2019-05-03T12:55:20.627Z,88.80
2019-05-03T12:57:50.733Z,89.20
2019-05-03T13:00:35.357Z,89.90
2019-05-03T13:03:08.538Z,89.20
2019-05-03T13:05:38.754Z,90.10
2019-05-03T13:08:41.827Z,88.90
2019-05-03T13:11:11.946Z,88.70
2019-05-03T13:13:41.878Z,88.00
2019-05-03T13:16:30.952Z,87.70
2019-05-03T13:19:00.989Z,87.90
2019-05-03T13:21:30.770Z,86.20
2019-05-03T13:24:00.851Z,87.90
2019-05-03T13:26:31.509Z,87.90
2019-05-03T13:29:01.680Z,89.10
2019-05-03T13:31:31.539Z,89.50
2019-05-03T13:34:01.618Z,87.20
2019-05-03T13:36:31.470Z,87.50
2019-05-03T13:39:11.517Z,88.40
2019-05-03T13:41:34.950Z,88.20
2019-05-03T13:44:05.265Z,89.60
2019-05-03T13:46:35.466Z,87.30
2019-05-03T13:49:08.430Z,88.90
2019-05-03T13:51:37.108Z,87.50
2019-05-03T13:54:07.254Z,89.00
2019-05-03T13:56:37.290Z,86.90
2019-05-03T13:59:18.548Z,89.10
2019-05-03T14:01:39.215Z,88.80
2019-05-03T14:04:09.072Z,88.90
2019-05-03T14:06:39.636Z,90.00
2019-05-03T14:09:09.819Z,89.10
2019-05-03T14:11:40.119Z,89.20
2019-05-03T14:14:10.405Z,90.10
2019-05-03T14:16:40.238Z,89.70
2019-05-03T14:19:14.724Z,90.90
2019-05-03T14:21:47.864Z,90.40
2019-05-03T14:24:17.587Z,90.50
2019-05-03T14:26:47.324Z,90.90
2019-05-03T14:29:17.945Z,90.70
2019-05-03T14:31:48.338Z,91.60
2019-05-03T14:34:18.493Z,91.30
2019-05-03T14:36:48.346Z,91.80
2019-05-03T14:39:18.093Z,91.10
2019-05-03T14:41:48.151Z,91.70
2019-05-03T14:44:18.361Z,91.70
2019-05-03T14:46:48.309Z,91.80
2019-05-03T14:49:18.048Z,92.10
2019-05-03T14:51:47.824Z,93.80
2019-05-03T14:54:17.588Z,95.10
2019-05-03T14:57:06.472Z,96.50
2019-05-03T14:59:58.709Z,96.40
2019-05-03T15:02:58.016Z,96.60
2019-05-03T15:05:27.893Z,94.90
2019-05-03T15:07:57.656Z,95.40
2019-05-03T15:10:29.110Z,95.70
2019-05-03T15:12:58.865Z,96.10
2019-05-03T15:15:29.026Z,95.30
2019-05-03T15:17:58.843Z,95.50
2019-05-03T15:20:28.774Z,95.80
2019-05-03T15:22:58.558Z,96.70
2019-05-03T15:25:28.456Z,97.70
2019-05-03T15:27:58.445Z,98.00
2019-05-03T15:30:28.465Z,98.70
2019-05-03T15:33:00.828Z,98.20
2019-05-03T15:35:29.831Z,99.30
2019-05-03T15:37:59.683Z,99.50
2019-05-03T15:40:29.453Z,99.90
2019-05-03T15:43:05.548Z,99.90
2019-05-03T15:45:54.485Z,99.90
2019-05-03T15:48:27.885Z,99.90
2019-05-03T15:50:57.682Z,99.90
2019-05-03T15:53:27.859Z,99.90
2019-05-03T15:55:58.613Z,99.90
2019-05-03T15:58:28.860Z,99.90
2019-05-03T16:00:58.642Z,99.90
2019-05-03T16:03:28.402Z,99.90
2019-05-03T16:05:58.461Z,99.90
2019-05-03T16:08:28.201Z,99.90
2019-05-03T16:10:59.078Z,99.90
2019-05-03T16:13:28.742Z,99.90
2019-05-03T16:15:58.545Z,99.90
2019-05-03T16:18:28.273Z,99.90
2019-05-03T16:20:58.476Z,99.90
2019-05-03T16:23:28.262Z,99.90
2019-05-03T16:25:58.212Z,99.90
2019-05-03T16:28:36.989Z,99.90
2019-05-03T16:31:12.283Z,99.90
2019-05-03T16:33:42.468Z,99.90
2019-05-03T16:36:12.473Z,99.90
2019-05-03T16:38:42.495Z,99.90
2019-05-03T16:41:12.111Z,99.90
2019-05-03T16:43:41.933Z,99.90
2019-05-03T16:46:11.943Z,99.90
2019-05-03T16:48:41.649Z,99.90
2019-05-03T16:51:11.606Z,99.90
2019-05-03T16:53:41.344Z,99.90
2019-05-03T16:56:11.079Z,99.90
2019-05-03T16:58:41.065Z,99.90
2019-05-03T17:01:13.453Z,99.90
2019-05-03T17:03:50.263Z,99.90
2019-05-03T17:06:27.594Z,99.90
2019-05-03T17:09:15.053Z,99.90
2019-05-03T17:11:46.810Z,99.90
2019-05-03T17:14:17.102Z,99.90
2019-05-03T17:16:47.266Z,99.90
2019-05-03T17:19:17.266Z,99.90
2019-05-03T17:21:47.086Z,99.90
2019-05-03T17:24:17.586Z,99.90
2019-05-03T17:26:47.891Z,99.90
2019-05-03T17:29:17.949Z,99.90
2019-05-03T17:31:47.787Z,99.90
2019-05-03T17:34:17.683Z,99.90
2019-05-03T17:36:47.578Z,99.90
2019-05-03T17:39:19.987Z,99.90
2019-05-03T17:42:11.948Z,99.90
2019-05-03T17:44:45.130Z,99.90
2019-05-03T17:47:15.228Z,99.90
2019-05-03T17:49:45.248Z,99.90
2019-05-03T17:52:34.390Z,99.90
2019-05-03T17:55:15.294Z,99.90
2019-05-03T17:57:55.559Z,99.90
2019-05-03T18:00:53.789Z,99.90
2019-05-03T18:03:25.814Z,99.90
2019-05-03T18:06:00.743Z,99.90
2019-05-03T18:08:52.353Z,99.90
2019-05-03T18:11:29.290Z,99.90
2019-05-03T18:13:59.082Z,99.90
2019-05-03T18:16:29.355Z,99.90
2019-05-03T18:18:58.983Z,99.90
2019-05-03T18:21:29.160Z,99.90
2019-05-03T18:23:59.297Z,99.90
2019-05-03T18:26:29.219Z,99.90
2019-05-03T18:28:59.284Z,99.90
2019-05-03T18:31:29.376Z,99.90
2019-05-03T18:33:59.045Z,99.90
2019-05-03T18:36:28.783Z,99.90
2019-05-03T18:38:58.553Z,99.90
2019-05-03T18:41:28.171Z,99.90
2019-05-03T18:44:16.853Z,99.90
2019-05-03T18:46:50.088Z,99.90
2019-05-03T18:49:20.016Z,99.90
2019-05-03T18:51:49.886Z,99.90
2019-05-03T18:54:19.811Z,99.90
2019-05-03T18:56:49.804Z,99.90
2019-05-03T18:59:19.529Z,99.90
2019-05-03T19:01:49.499Z,99.90
2019-05-03T19:04:45.190Z,99.90
2019-05-03T19:07:34.734Z,99.90
2019-05-03T19:10:24.813Z,99.90
2019-05-03T19:13:15.006Z,99.90
2019-05-03T19:15:45.127Z,99.90
2019-05-03T19:18:35.283Z,99.90
2019-05-03T19:21:05.307Z,99.90
2019-05-03T19:23:35.584Z,99.90
2019-05-03T19:26:05.604Z,99.90
2019-05-03T19:28:35.903Z,99.90
2019-05-03T19:31:05.639Z,99.90
2019-05-03T19:33:37.334Z,99.90
2019-05-03T19:36:07.156Z,99.90
2019-05-03T19:38:37.421Z,99.90
2019-05-03T19:41:07.571Z,99.90
2019-05-03T19:43:37.625Z,99.90
2019-05-03T19:46:07.824Z,99.90
2019-05-03T19:48:38.187Z,99.90
2019-05-03T19:51:08.784Z,99.90
2019-05-03T19:53:47.131Z,99.90
2019-05-03T19:56:17.832Z,99.90
2019-05-03T19:58:47.864Z,99.90
2019-05-03T20:01:39.703Z,99.90
2019-05-03T20:04:40.760Z,99.90
2019-05-03T20:07:39.277Z,99.90
2019-05-03T20:10:10.024Z,99.90
2019-05-03T20:12:40.630Z,99.90
2019-05-03T20:15:11.090Z,99.90
2019-05-03T20:17:53.986Z,99.90
2019-05-03T20:20:12.951Z,99.90
2019-05-03T20:22:45.067Z,99.90
2019-05-03T20:25:15.585Z,99.90
2019-05-03T20:27:45.488Z,99.90
2019-05-03T20:30:15.626Z,99.90
2019-05-03T20:32:45.906Z,99.90
2019-05-03T20:35:19.144Z,99.90
2019-05-03T20:37:48.275Z,99.90
2019-05-03T20:40:18.438Z,99.90
2019-05-03T20:43:10.886Z,99.90
2019-05-03T20:45:54.810Z,99.90
2019-05-03T20:48:25.339Z,99.90
2019-05-03T20:50:55.902Z,99.90
2019-05-03T20:53:25.566Z,99.90
2019-05-03T20:55:55.795Z,99.90
2019-05-03T20:58:25.510Z,99.90
2019-05-03T21:00:55.351Z,99.90
2019-05-03T21:03:25.901Z,99.90
2019-05-03T21:05:55.965Z,99.90
2019-05-03T21:08:26.079Z,99.90
2019-05-03T21:10:55.896Z,99.90
2019-05-03T21:13:38.626Z,99.90
2019-05-03T21:16:15.540Z,99.90
2019-05-03T21:19:00.842Z,99.90
2019-05-03T21:21:38.051Z,99.90
2019-05-03T21:24:29.686Z,99.90
2019-05-03T21:27:00.285Z,99.90
2019-05-03T21:29:30.073Z,99.90
2019-05-03T21:32:00.105Z,99.90
2019-05-03T21:34:29.894Z,99.90
2019-05-03T21:36:59.638Z,99.90
2019-05-03T21:39:29.341Z,99.90
2019-05-03T21:41:59.539Z,99.90
2019-05-03T21:44:33.177Z,99.90
2019-05-03T21:47:15.237Z,99.90
2019-05-03T21:49:45.787Z,99.90
2019-05-03T21:52:15.813Z,99.90
2019-05-03T21:54:45.600Z,99.90
2019-05-03T21:57:16.577Z,99.90
2019-05-03T21:59:46.362Z,99.90
2019-05-03T22:02:16.716Z,99.90
2019-05-03T22:04:46.464Z,99.90
2019-05-03T22:07:16.919Z,99.90
2019-05-03T22:09:46.743Z,99.90
2019-05-03T22:12:16.635Z,99.90
2019-05-03T22:14:54.513Z,99.90
2019-05-03T22:17:41.944Z,99.90
2019-05-03T22:20:20.311Z,99.90
2019-05-03T22:22:56.672Z,99.90
2019-05-03T22:25:29.109Z,99.90
2019-05-03T22:27:58.927Z,99.90
2019-05-03T22:30:28.717Z,99.90
2019-05-03T22:32:58.541Z,99.90
2019-05-03T22:35:28.338Z,99.90
2019-05-03T22:37:58.499Z,99.90
2019-05-03T22:40:28.261Z,99.90
2019-05-03T22:42:58.247Z,99.90
2019-05-03T22:45:28.021Z,99.90
2019-05-03T22:47:58.109Z,99.90
2019-05-03T22:50:28.256Z,99.90
2019-05-03T22:52:58.435Z,99.90
2019-05-03T22:55:28.292Z,99.90
2019-05-03T22:57:58.110Z,99.90
2019-05-03T23:00:28.008Z,99.90
2019-05-03T23:02:57.747Z,99.90
2019-05-03T23:05:27.888Z,99.90
2019-05-03T23:07:57.671Z,99.90
2019-05-03T23:10:27.461Z,99.90
2019-05-03T23:12:57.957Z,99.90
2019-05-03T23:15:27.692Z,99.90
2019-05-03T23:17:57.404Z,99.90
2019-05-03T23:20:51.986Z,99.90
2019-05-03T23:23:39.432Z,99.90
2019-05-03T23:26:09.491Z,99.90
2019-05-03T23:28:39.267Z,99.90
2019-05-03T23:31:08.916Z,99.90
2019-05-03T23:33:38.649Z,99.90
2019-05-03T23:36:08.539Z,99.90
2019-05-03T23:38:38.517Z,99.90
2019-05-03T23:41:10.102Z,99.90
2019-05-03T23:43:40.183Z,99.90
2019-05-03T23:46:10.594Z,99.90
2019-05-03T23:48:40.683Z,99.90
2019-05-03T23:51:12.372Z,99.90
2019-05-03T23:53:42.183Z,99.90
2019-05-03T23:56:17.759Z,99.90
2019-05-03T23:58:47.453Z,99.90
